sensor_id;sensor_type;location;lat;lon;timestamp;P1;durP1;ratioP1;P2;durP2;ratioP2
10596;SDS011;5346;48.766;8.674;2023-11-21T00:00:30;1.60;;;0.50;;
10596;SDS011;5346;48.766;8.674;2023-11-21T00:03:04;3.20;;;0.87;;
10596;SDS011;5346;48.766;8.674;2023-11-21T00:05:33;1.27;;;0.77;;
10596;SDS011;5346;48.766;8.674;2023-11-21T00:08:08;0.83;;;0.40;;
10596;SDS011;5346;48.766;8.674;2023-11-21T00:10:41;2.13;;;0.50;;
10596;SDS011;5346;48.766;8.674;2023-11-21T00:13:15;1.70;;;0.80;;
10596;SDS011;5346;48.766;8.674;2023-11-21T00:15:44;0.53;;;0.53;;
10596;SDS011;5346;48.766;8.674;2023-11-21T00:18:18;2.63;;;0.70;;
10596;SDS011;5346;48.766;8.674;2023-11-21T00:20:47;2.13;;;0.57;;
10596;SDS011;5346;48.766;8.674;2023-11-21T00:23:20;3.47;;;0.50;;
10596;SDS011;5346;48.766;8.674;2023-11-21T00:25:48;1.93;;;0.50;;
10596;SDS011;5346;48.766;8.674;2023-11-21T00:28:22;2.23;;;0.60;;
10596;SDS011;5346;48.766;8.674;2023-11-21T00:30:52;2.63;;;0.80;;
10596;SDS011;5346;48.766;8.674;2023-11-21T00:33:26;5.47;;;0.70;;
10596;SDS011;5346;48.766;8.674;2023-11-21T00:35:54;1.37;;;0.60;;
10596;SDS011;5346;48.766;8.674;2023-11-21T00:38:30;1.40;;;0.60;;
10596;SDS011;5346;48.766;8.674;2023-11-21T00:41:04;1.37;;;0.40;;
10596;SDS011;5346;48.766;8.674;2023-11-21T00:43:32;0.50;;;0.50;;
10596;SDS011;5346;48.766;8.674;2023-11-21T00:46:07;0.67;;;0.60;;
10596;SDS011;5346;48.766;8.674;2023-11-21T00:48:36;1.80;;;0.60;;
10596;SDS011;5346;48.766;8.674;2023-11-21T00:51:10;2.20;;;0.40;;
10596;SDS011;5346;48.766;8.674;2023-11-21T00:53:38;1.07;;;0.50;;
10596;SDS011;5346;48.766;8.674;2023-11-21T00:56:06;2.53;;;0.53;;
10596;SDS011;5346;48.766;8.674;2023-11-21T00:58:41;0.83;;;0.40;;
10596;SDS011;5346;48.766;8.674;2023-11-21T01:01:20;1.87;;;0.77;;
10596;SDS011;5346;48.766;8.674;2023-11-21T01:03:57;2.10;;;0.43;;
10596;SDS011;5346;48.766;8.674;2023-11-21T01:06:38;0.83;;;0.33;;
10596;SDS011;5346;48.766;8.674;2023-11-21T01:09:08;2.27;;;0.50;;
10596;SDS011;5346;48.766;8.674;2023-11-21T01:11:42;2.37;;;0.70;;
10596;SDS011;5346;48.766;8.674;2023-11-21T01:14:17;1.80;;;0.47;;
10596;SDS011;5346;48.766;8.674;2023-11-21T01:16:53;0.63;;;0.40;;
10596;SDS011;5346;48.766;8.674;2023-11-21T01:19:29;1.83;;;0.43;;
10596;SDS011;5346;48.766;8.674;2023-11-21T01:21:56;1.27;;;0.40;;
10596;SDS011;5346;48.766;8.674;2023-11-21T01:24:31;1.50;;;0.60;;
10596;SDS011;5346;48.766;8.674;2023-11-21T01:26:59;2.73;;;0.47;;
10596;SDS011;5346;48.766;8.674;2023-11-21T01:29:33;0.87;;;0.50;;
10596;SDS011;5346;48.766;8.674;2023-11-21T01:32:02;0.30;;;0.30;;
10596;SDS011;5346;48.766;8.674;2023-11-21T01:34:30;2.83;;;0.40;;
10596;SDS011;5346;48.766;8.674;2023-11-21T01:37:05;0.80;;;0.50;;
10596;SDS011;5346;48.766;8.674;2023-11-21T01:39:32;1.07;;;0.50;;
10596;SDS011;5346;48.766;8.674;2023-11-21T01:42:07;0.63;;;0.50;;
10596;SDS011;5346;48.766;8.674;2023-11-21T01:44:41;0.70;;;0.40;;
10596;SDS011;5346;48.766;8.674;2023-11-21T01:47:19;1.17;;;0.50;;
10596;SDS011;5346;48.766;8.674;2023-11-21T01:49:48;1.43;;;0.40;;
10596;SDS011;5346;48.766;8.674;2023-11-21T01:52:22;2.23;;;0.50;;
10596;SDS011;5346;48.766;8.674;2023-11-21T01:54:50;0.77;;;0.40;;
10596;SDS011;5346;48.766;8.674;2023-11-21T01:57:25;0.97;;;0.40;;
10596;SDS011;5346;48.766;8.674;2023-11-21T01:59:54;2.53;;;0.60;;
10596;SDS011;5346;48.766;8.674;2023-11-21T02:02:29;2.47;;;0.53;;
10596;SDS011;5346;48.766;8.674;2023-11-21T02:04:58;5.70;;;1.43;;
10596;SDS011;5346;48.766;8.674;2023-11-21T02:07:32;0.77;;;0.40;;
10596;SDS011;5346;48.766;8.674;2023-11-21T02:10:06;3.47;;;0.37;;
10596;SDS011;5346;48.766;8.674;2023-11-21T02:12:41;2.10;;;0.50;;
10596;SDS011;5346;48.766;8.674;2023-11-21T02:15:12;1.20;;;0.40;;
10596;SDS011;5346;48.766;8.674;2023-11-21T02:17:53;1.30;;;0.73;;
10596;SDS011;5346;48.766;8.674;2023-11-21T02:20:22;1.47;;;0.70;;
10596;SDS011;5346;48.766;8.674;2023-11-21T02:22:58;1.23;;;0.60;;
10596;SDS011;5346;48.766;8.674;2023-11-21T02:25:31;1.10;;;0.43;;
10596;SDS011;5346;48.766;8.674;2023-11-21T02:28:06;0.60;;;0.50;;
10596;SDS011;5346;48.766;8.674;2023-11-21T02:30:36;2.43;;;0.70;;
10596;SDS011;5346;48.766;8.674;2023-11-21T02:33:10;4.47;;;0.80;;
10596;SDS011;5346;48.766;8.674;2023-11-21T02:35:45;0.57;;;0.47;;
10596;SDS011;5346;48.766;8.674;2023-11-21T02:38:20;1.10;;;0.80;;
10596;SDS011;5346;48.766;8.674;2023-11-21T02:40:56;1.10;;;0.70;;
10596;SDS011;5346;48.766;8.674;2023-11-21T02:43:35;1.40;;;0.73;;
10596;SDS011;5346;48.766;8.674;2023-11-21T02:46:11;2.13;;;0.90;;
10596;SDS011;5346;48.766;8.674;2023-11-21T02:48:45;2.83;;;1.07;;
10596;SDS011;5346;48.766;8.674;2023-11-21T02:51:20;4.00;;;1.33;;
10596;SDS011;5346;48.766;8.674;2023-11-21T02:53:54;13.97;;;1.70;;
10596;SDS011;5346;48.766;8.674;2023-11-21T02:56:32;20.93;;;2.70;;
10596;SDS011;5346;48.766;8.674;2023-11-21T02:59:06;10.90;;;1.80;;
10596;SDS011;5346;48.766;8.674;2023-11-21T03:01:41;8.43;;;1.40;;
10596;SDS011;5346;48.766;8.674;2023-11-21T03:04:15;7.17;;;1.30;;
10596;SDS011;5346;48.766;8.674;2023-11-21T03:06:44;2.67;;;1.10;;
10596;SDS011;5346;48.766;8.674;2023-11-21T03:09:19;1.50;;;0.90;;
10596;SDS011;5346;48.766;8.674;2023-11-21T03:11:53;1.97;;;1.07;;
10596;SDS011;5346;48.766;8.674;2023-11-21T03:14:28;1.63;;;0.93;;
10596;SDS011;5346;48.766;8.674;2023-11-21T03:16:56;1.77;;;1.27;;
10596;SDS011;5346;48.766;8.674;2023-11-21T03:19:30;2.90;;;1.50;;
10596;SDS011;5346;48.766;8.674;2023-11-21T03:21:59;2.20;;;0.87;;
10596;SDS011;5346;48.766;8.674;2023-11-21T03:24:33;5.20;;;0.93;;
10596;SDS011;5346;48.766;8.674;2023-11-21T03:27:01;0.37;;;0.37;;
10596;SDS011;5346;48.766;8.674;2023-11-21T03:29:35;2.13;;;0.70;;
10596;SDS011;5346;48.766;8.674;2023-11-21T03:32:10;2.47;;;0.60;;
10596;SDS011;5346;48.766;8.674;2023-11-21T03:34:52;0.50;;;0.50;;
10596;SDS011;5346;48.766;8.674;2023-11-21T03:37:31;1.17;;;0.50;;
10596;SDS011;5346;48.766;8.674;2023-11-21T03:40:11;0.77;;;0.40;;
10596;SDS011;5346;48.766;8.674;2023-11-21T03:42:46;0.70;;;0.70;;
10596;SDS011;5346;48.766;8.674;2023-11-21T03:45:14;1.43;;;0.90;;
10596;SDS011;5346;48.766;8.674;2023-11-21T03:47:43;4.63;;;1.27;;
10596;SDS011;5346;48.766;8.674;2023-11-21T03:50:17;2.73;;;0.90;;
10596;SDS011;5346;48.766;8.674;2023-11-21T03:52:54;1.33;;;0.80;;
10596;SDS011;5346;48.766;8.674;2023-11-21T03:55:29;1.93;;;0.60;;
10596;SDS011;5346;48.766;8.674;2023-11-21T03:58:04;4.23;;;0.77;;
10596;SDS011;5346;48.766;8.674;2023-11-21T04:00:32;1.30;;;0.60;;
10596;SDS011;5346;48.766;8.674;2023-11-21T04:03:07;1.27;;;1.00;;
10596;SDS011;5346;48.766;8.674;2023-11-21T04:05:35;0.70;;;0.67;;
10596;SDS011;5346;48.766;8.674;2023-11-21T04:08:17;1.97;;;0.80;;
10596;SDS011;5346;48.766;8.674;2023-11-21T04:10:45;1.43;;;0.60;;
10596;SDS011;5346;48.766;8.674;2023-11-21T04:13:20;1.23;;;0.70;;
10596;SDS011;5346;48.766;8.674;2023-11-21T04:15:54;2.10;;;0.80;;
10596;SDS011;5346;48.766;8.674;2023-11-21T04:18:22;1.70;;;0.70;;
10596;SDS011;5346;48.766;8.674;2023-11-21T04:20:57;0.90;;;0.80;;
10596;SDS011;5346;48.766;8.674;2023-11-21T04:23:24;1.20;;;0.63;;
10596;SDS011;5346;48.766;8.674;2023-11-21T04:25:52;1.23;;;0.90;;
10596;SDS011;5346;48.766;8.674;2023-11-21T04:28:31;2.10;;;0.73;;
10596;SDS011;5346;48.766;8.674;2023-11-21T04:30:59;1.50;;;1.00;;
10596;SDS011;5346;48.766;8.674;2023-11-21T04:33:33;2.20;;;0.70;;
10596;SDS011;5346;48.766;8.674;2023-11-21T04:36:01;1.27;;;0.70;;
10596;SDS011;5346;48.766;8.674;2023-11-21T04:38:35;1.00;;;0.90;;
10596;SDS011;5346;48.766;8.674;2023-11-21T04:41:09;2.73;;;1.10;;
10596;SDS011;5346;48.766;8.674;2023-11-21T04:43:39;1.30;;;0.70;;
10596;SDS011;5346;48.766;8.674;2023-11-21T04:46:09;3.10;;;1.23;;
10596;SDS011;5346;48.766;8.674;2023-11-21T04:48:43;1.80;;;0.80;;
10596;SDS011;5346;48.766;8.674;2023-11-21T04:51:17;1.03;;;0.80;;
10596;SDS011;5346;48.766;8.674;2023-11-21T04:53:52;2.27;;;0.90;;
10596;SDS011;5346;48.766;8.674;2023-11-21T04:56:27;1.53;;;0.77;;
10596;SDS011;5346;48.766;8.674;2023-11-21T04:58:54;1.07;;;0.70;;
10596;SDS011;5346;48.766;8.674;2023-11-21T05:01:30;0.60;;;0.60;;
10596;SDS011;5346;48.766;8.674;2023-11-21T05:04:05;1.80;;;1.10;;
10596;SDS011;5346;48.766;8.674;2023-11-21T05:06:48;4.07;;;2.07;;
10596;SDS011;5346;48.766;8.674;2023-11-21T05:09:29;2.20;;;1.77;;
10596;SDS011;5346;48.766;8.674;2023-11-21T05:12:05;1.93;;;1.10;;
10596;SDS011;5346;48.766;8.674;2023-11-21T05:14:33;1.13;;;0.90;;
10596;SDS011;5346;48.766;8.674;2023-11-21T05:17:10;1.23;;;1.00;;
10596;SDS011;5346;48.766;8.674;2023-11-21T05:19:38;5.23;;;1.30;;
10596;SDS011;5346;48.766;8.674;2023-11-21T05:22:15;2.13;;;1.20;;
10596;SDS011;5346;48.766;8.674;2023-11-21T05:24:49;2.67;;;1.23;;
10596;SDS011;5346;48.766;8.674;2023-11-21T05:27:17;1.70;;;1.10;;
10596;SDS011;5346;48.766;8.674;2023-11-21T05:29:51;4.63;;;1.10;;
10596;SDS011;5346;48.766;8.674;2023-11-21T05:32:25;2.77;;;1.40;;
10596;SDS011;5346;48.766;8.674;2023-11-21T05:34:59;1.87;;;1.60;;
10596;SDS011;5346;48.766;8.674;2023-11-21T05:37:34;2.07;;;1.30;;
10596;SDS011;5346;48.766;8.674;2023-11-21T05:40:03;2.20;;;1.20;;
10596;SDS011;5346;48.766;8.674;2023-11-21T05:42:40;4.80;;;1.93;;
10596;SDS011;5346;48.766;8.674;2023-11-21T05:45:09;1.73;;;1.40;;
10596;SDS011;5346;48.766;8.674;2023-11-21T05:47:44;3.27;;;1.73;;
10596;SDS011;5346;48.766;8.674;2023-11-21T05:50:14;2.87;;;1.30;;
10596;SDS011;5346;48.766;8.674;2023-11-21T05:52:50;1.47;;;1.20;;
10596;SDS011;5346;48.766;8.674;2023-11-21T05:55:17;2.10;;;1.30;;
10596;SDS011;5346;48.766;8.674;2023-11-21T05:57:54;3.87;;;1.50;;
10596;SDS011;5346;48.766;8.674;2023-11-21T06:00:28;5.50;;;1.50;;
10596;SDS011;5346;48.766;8.674;2023-11-21T06:02:55;1.57;;;1.20;;
10596;SDS011;5346;48.766;8.674;2023-11-21T06:05:30;2.73;;;1.20;;
10596;SDS011;5346;48.766;8.674;2023-11-21T06:08:06;1.63;;;1.47;;
10596;SDS011;5346;48.766;8.674;2023-11-21T06:10:41;3.30;;;1.70;;
10596;SDS011;5346;48.766;8.674;2023-11-21T06:13:16;3.33;;;1.97;;
10596;SDS011;5346;48.766;8.674;2023-11-21T06:15:53;1.77;;;1.50;;
10596;SDS011;5346;48.766;8.674;2023-11-21T06:18:21;2.80;;;1.27;;
10596;SDS011;5346;48.766;8.674;2023-11-21T06:20:55;1.20;;;1.10;;
10596;SDS011;5346;48.766;8.674;2023-11-21T06:23:29;1.17;;;1.07;;
10596;SDS011;5346;48.766;8.674;2023-11-21T06:25:57;1.27;;;0.90;;
10596;SDS011;5346;48.766;8.674;2023-11-21T06:28:31;1.67;;;0.80;;
10596;SDS011;5346;48.766;8.674;2023-11-21T06:30:59;1.03;;;0.80;;
10596;SDS011;5346;48.766;8.674;2023-11-21T06:33:38;2.33;;;1.00;;
10596;SDS011;5346;48.766;8.674;2023-11-21T06:36:13;0.80;;;0.80;;
10596;SDS011;5346;48.766;8.674;2023-11-21T06:38:40;0.60;;;0.60;;
10596;SDS011;5346;48.766;8.674;2023-11-21T06:41:15;1.00;;;0.90;;
10596;SDS011;5346;48.766;8.674;2023-11-21T06:43:42;1.07;;;0.83;;
10596;SDS011;5346;48.766;8.674;2023-11-21T06:46:19;3.20;;;1.00;;
10596;SDS011;5346;48.766;8.674;2023-11-21T06:48:48;3.10;;;0.77;;
10596;SDS011;5346;48.766;8.674;2023-11-21T06:51:17;1.90;;;1.00;;
10596;SDS011;5346;48.766;8.674;2023-11-21T06:53:53;1.20;;;0.80;;
10596;SDS011;5346;48.766;8.674;2023-11-21T06:56:20;1.30;;;0.70;;
10596;SDS011;5346;48.766;8.674;2023-11-21T06:58:57;1.33;;;1.00;;
10596;SDS011;5346;48.766;8.674;2023-11-21T07:01:32;1.50;;;1.03;;
10596;SDS011;5346;48.766;8.674;2023-11-21T07:04:12;1.20;;;1.10;;
10596;SDS011;5346;48.766;8.674;2023-11-21T07:06:40;1.87;;;1.30;;
10596;SDS011;5346;48.766;8.674;2023-11-21T07:09:22;2.40;;;1.37;;
10596;SDS011;5346;48.766;8.674;2023-11-21T07:11:58;1.47;;;1.30;;
10596;SDS011;5346;48.766;8.674;2023-11-21T07:14:32;1.77;;;1.30;;
10596;SDS011;5346;48.766;8.674;2023-11-21T07:17:09;1.40;;;1.30;;
10596;SDS011;5346;48.766;8.674;2023-11-21T07:19:38;0.83;;;0.70;;
10596;SDS011;5346;48.766;8.674;2023-11-21T07:22:13;1.13;;;1.00;;
10596;SDS011;5346;48.766;8.674;2023-11-21T07:24:43;1.20;;;1.00;;
10596;SDS011;5346;48.766;8.674;2023-11-21T07:27:17;2.30;;;1.20;;
10596;SDS011;5346;48.766;8.674;2023-11-21T07:29:47;1.27;;;1.10;;
10596;SDS011;5346;48.766;8.674;2023-11-21T07:32:31;0.80;;;0.80;;
10596;SDS011;5346;48.766;8.674;2023-11-21T07:35:00;1.43;;;0.90;;
10596;SDS011;5346;48.766;8.674;2023-11-21T07:37:35;1.60;;;0.90;;
10596;SDS011;5346;48.766;8.674;2023-11-21T07:40:02;0.70;;;0.70;;
10596;SDS011;5346;48.766;8.674;2023-11-21T07:42:31;0.83;;;0.83;;
10596;SDS011;5346;48.766;8.674;2023-11-21T07:45:05;0.80;;;0.80;;
10596;SDS011;5346;48.766;8.674;2023-11-21T07:47:33;1.63;;;0.77;;
10596;SDS011;5346;48.766;8.674;2023-11-21T07:50:08;0.80;;;0.80;;
10596;SDS011;5346;48.766;8.674;2023-11-21T07:52:36;0.93;;;0.60;;
10596;SDS011;5346;48.766;8.674;2023-11-21T07:55:04;0.70;;;0.67;;
10596;SDS011;5346;48.766;8.674;2023-11-21T07:57:38;2.00;;;0.70;;
10596;SDS011;5346;48.766;8.674;2023-11-21T08:00:13;0.60;;;0.60;;
10596;SDS011;5346;48.766;8.674;2023-11-21T08:02:49;0.73;;;0.73;;
10596;SDS011;5346;48.766;8.674;2023-11-21T08:05:17;0.70;;;0.70;;
10596;SDS011;5346;48.766;8.674;2023-11-21T08:08:10;2.40;;;0.63;;
10596;SDS011;5346;48.766;8.674;2023-11-21T08:10:38;0.63;;;0.63;;
10596;SDS011;5346;48.766;8.674;2023-11-21T08:13:13;0.70;;;0.70;;
10596;SDS011;5346;48.766;8.674;2023-11-21T08:15:42;0.60;;;0.60;;
10596;SDS011;5346;48.766;8.674;2023-11-21T08:18:20;0.43;;;0.43;;
10596;SDS011;5346;48.766;8.674;2023-11-21T08:20:48;1.77;;;0.47;;
10596;SDS011;5346;48.766;8.674;2023-11-21T08:23:24;0.53;;;0.40;;
10596;SDS011;5346;48.766;8.674;2023-11-21T08:25:53;0.70;;;0.50;;
10596;SDS011;5346;48.766;8.674;2023-11-21T08:28:29;0.50;;;0.50;;
10596;SDS011;5346;48.766;8.674;2023-11-21T08:30:56;1.73;;;0.40;;
10596;SDS011;5346;48.766;8.674;2023-11-21T08:33:36;2.30;;;0.60;;
10596;SDS011;5346;48.766;8.674;2023-11-21T08:36:10;0.40;;;0.40;;
10596;SDS011;5346;48.766;8.674;2023-11-21T08:38:46;0.40;;;0.40;;
10596;SDS011;5346;48.766;8.674;2023-11-21T08:41:15;1.80;;;0.73;;
10596;SDS011;5346;48.766;8.674;2023-11-21T08:43:50;0.50;;;0.50;;
10596;SDS011;5346;48.766;8.674;2023-11-21T08:46:18;0.40;;;0.40;;
10596;SDS011;5346;48.766;8.674;2023-11-21T08:48:53;0.40;;;0.30;;
10596;SDS011;5346;48.766;8.674;2023-11-21T08:51:26;0.75;;;0.75;;
10596;SDS011;5346;48.766;8.674;2023-11-21T08:53:54;0.53;;;0.40;;
10596;SDS011;5346;48.766;8.674;2023-11-21T08:56:34;0.40;;;0.40;;
10596;SDS011;5346;48.766;8.674;2023-11-21T08:59:02;0.17;;;0.17;;
10596;SDS011;5346;48.766;8.674;2023-11-21T09:01:36;3.30;;;0.50;;
10596;SDS011;5346;48.766;8.674;2023-11-21T09:04:04;0.40;;;0.40;;
10596;SDS011;5346;48.766;8.674;2023-11-21T09:06:38;0.50;;;0.47;;
10596;SDS011;5346;48.766;8.674;2023-11-21T09:09:13;0.40;;;0.40;;
10596;SDS011;5346;48.766;8.674;2023-11-21T09:11:54;0.30;;;0.30;;
10596;SDS011;5346;48.766;8.674;2023-11-21T09:14:23;0.40;;;0.40;;
10596;SDS011;5346;48.766;8.674;2023-11-21T09:16:51;0.33;;;0.33;;
10596;SDS011;5346;48.766;8.674;2023-11-21T09:19:27;0.40;;;0.40;;
10596;SDS011;5346;48.766;8.674;2023-11-21T09:21:55;0.40;;;0.30;;
10596;SDS011;5346;48.766;8.674;2023-11-21T09:24:23;0.30;;;0.30;;
10596;SDS011;5346;48.766;8.674;2023-11-21T09:27:00;0.70;;;0.40;;
10596;SDS011;5346;48.766;8.674;2023-11-21T09:29:35;1.30;;;0.20;;
10596;SDS011;5346;48.766;8.674;2023-11-21T09:32:07;1.37;;;0.30;;
10596;SDS011;5346;48.766;8.674;2023-11-21T09:34:43;0.20;;;0.20;;
10596;SDS011;5346;48.766;8.674;2023-11-21T09:37:18;0.60;;;0.30;;
10596;SDS011;5346;48.766;8.674;2023-11-21T09:39:53;0.47;;;0.40;;
10596;SDS011;5346;48.766;8.674;2023-11-21T09:42:25;0.20;;;0.20;;
10596;SDS011;5346;48.766;8.674;2023-11-21T09:45:18;0.50;;;0.30;;
10596;SDS011;5346;48.766;8.674;2023-11-21T09:48:00;0.20;;;0.20;;
10596;SDS011;5346;48.766;8.674;2023-11-21T09:50:30;0.20;;;0.20;;
10596;SDS011;5346;48.766;8.674;2023-11-21T09:55:45;0.10;;;0.10;;
10596;SDS011;5346;48.766;8.674;2023-11-21T09:58:21;0.57;;;0.27;;
10596;SDS011;5346;48.766;8.674;2023-11-21T10:00:58;0.30;;;0.30;;
10596;SDS011;5346;48.766;8.674;2023-11-21T10:03:36;0.90;;;0.30;;
10596;SDS011;5346;48.766;8.674;2023-11-21T10:06:12;0.30;;;0.30;;
10596;SDS011;5346;48.766;8.674;2023-11-21T10:08:57;0.20;;;0.20;;
10596;SDS011;5346;48.766;8.674;2023-11-21T10:11:43;0.37;;;0.37;;
10596;SDS011;5346;48.766;8.674;2023-11-21T10:14:19;0.10;;;0.10;;
10596;SDS011;5346;48.766;8.674;2023-11-21T10:16:55;0.40;;;0.30;;
10596;SDS011;5346;48.766;8.674;2023-11-21T10:19:31;0.30;;;0.30;;
10596;SDS011;5346;48.766;8.674;2023-11-21T10:22:06;0.30;;;0.30;;
10596;SDS011;5346;48.766;8.674;2023-11-21T10:24:39;0.20;;;0.20;;
10596;SDS011;5346;48.766;8.674;2023-11-21T10:27:19;0.50;;;0.40;;
10596;SDS011;5346;48.766;8.674;2023-11-21T10:29:47;0.30;;;0.30;;
10596;SDS011;5346;48.766;8.674;2023-11-21T10:32:28;0.60;;;0.50;;
10596;SDS011;5346;48.766;8.674;2023-11-21T10:34:59;1.20;;;0.60;;
10596;SDS011;5346;48.766;8.674;2023-11-21T10:37:36;0.80;;;0.80;;
10596;SDS011;5346;48.766;8.674;2023-11-21T10:40:14;1.20;;;0.50;;
10596;SDS011;5346;48.766;8.674;2023-11-21T10:42:50;0.80;;;0.60;;
10596;SDS011;5346;48.766;8.674;2023-11-21T10:45:18;0.63;;;0.60;;
10596;SDS011;5346;48.766;8.674;2023-11-21T10:47:58;1.27;;;0.90;;
10596;SDS011;5346;48.766;8.674;2023-11-21T10:50:27;0.83;;;0.83;;
10596;SDS011;5346;48.766;8.674;2023-11-21T10:53:05;1.30;;;1.20;;
10596;SDS011;5346;48.766;8.674;2023-11-21T10:55:33;1.90;;;1.60;;
10596;SDS011;5346;48.766;8.674;2023-11-21T10:58:08;2.20;;;2.00;;
10596;SDS011;5346;48.766;8.674;2023-11-21T11:00:37;6.30;;;2.13;;
10596;SDS011;5346;48.766;8.674;2023-11-21T11:03:07;2.10;;;1.90;;
10596;SDS011;5346;48.766;8.674;2023-11-21T11:05:47;2.63;;;1.97;;
10596;SDS011;5346;48.766;8.674;2023-11-21T11:08:26;2.80;;;2.27;;
10596;SDS011;5346;48.766;8.674;2023-11-21T11:11:00;9.43;;;2.33;;
10596;SDS011;5346;48.766;8.674;2023-11-21T11:13:30;4.07;;;3.00;;
10596;SDS011;5346;48.766;8.674;2023-11-21T11:16:05;15.23;;;4.40;;
10596;SDS011;5346;48.766;8.674;2023-11-21T11:18:37;115.00;;;8.50;;
10596;SDS011;5346;48.766;8.674;2023-11-21T11:21:14;134.20;;;8.27;;
10596;SDS011;5346;48.766;8.674;2023-11-21T11:30:11;251.57;;;12.70;;
10596;SDS011;5346;48.766;8.674;2023-11-21T11:32:58;108.33;;;7.80;;
10596;SDS011;5346;48.766;8.674;2023-11-21T11:38:56;4.97;;;3.67;;
10596;SDS011;5346;48.766;8.674;2023-11-21T11:41:31;13.93;;;5.90;;
10596;SDS011;5346;48.766;8.674;2023-11-21T11:44:36;7.97;;;5.30;;
10596;SDS011;5346;48.766;8.674;2023-11-21T11:47:22;5.23;;;4.57;;
10596;SDS011;5346;48.766;8.674;2023-11-21T11:50:10;5.15;;;4.65;;
10596;SDS011;5346;48.766;8.674;2023-11-21T11:52:45;5.60;;;4.50;;
10596;SDS011;5346;48.766;8.674;2023-11-21T11:55:22;7.00;;;4.73;;
10596;SDS011;5346;48.766;8.674;2023-11-21T11:57:57;5.17;;;4.67;;
10596;SDS011;5346;48.766;8.674;2023-11-21T12:00:34;8.93;;;5.63;;
10596;SDS011;5346;48.766;8.674;2023-11-21T12:03:12;7.57;;;6.27;;
10596;SDS011;5346;48.766;8.674;2023-11-21T12:05:47;35.07;;;8.20;;
10596;SDS011;5346;48.766;8.674;2023-11-21T12:08:16;14.10;;;8.17;;
10596;SDS011;5346;48.766;8.674;2023-11-21T12:11:10;7.60;;;6.23;;
10596;SDS011;5346;48.766;8.674;2023-11-21T12:13:49;7.47;;;6.17;;
10596;SDS011;5346;48.766;8.674;2023-11-21T12:16:27;7.53;;;6.20;;
10596;SDS011;5346;48.766;8.674;2023-11-21T12:18:54;10.40;;;6.10;;
10596;SDS011;5346;48.766;8.674;2023-11-21T12:21:28;12.93;;;5.10;;
10596;SDS011;5346;48.766;8.674;2023-11-21T12:23:59;8.27;;;3.10;;
10596;SDS011;5346;48.766;8.674;2023-11-21T12:26:34;3.47;;;3.00;;
10596;SDS011;5346;48.766;8.674;2023-11-21T12:29:11;2.87;;;2.43;;
10596;SDS011;5346;48.766;8.674;2023-11-21T12:31:45;3.00;;;2.57;;
10596;SDS011;5346;48.766;8.674;2023-11-21T12:34:24;3.70;;;2.80;;
10596;SDS011;5346;48.766;8.674;2023-11-21T12:36:58;3.53;;;2.53;;
10596;SDS011;5346;48.766;8.674;2023-11-21T12:39:33;3.50;;;3.10;;
10596;SDS011;5346;48.766;8.674;2023-11-21T12:42:07;3.30;;;3.00;;
10596;SDS011;5346;48.766;8.674;2023-11-21T12:44:42;4.37;;;3.33;;
10596;SDS011;5346;48.766;8.674;2023-11-21T12:47:20;6.23;;;3.47;;
10596;SDS011;5346;48.766;8.674;2023-11-21T12:49:48;5.47;;;4.43;;
10596;SDS011;5346;48.766;8.674;2023-11-21T12:52:17;8.80;;;5.40;;
10596;SDS011;5346;48.766;8.674;2023-11-21T12:54:51;7.13;;;5.97;;
10596;SDS011;5346;48.766;8.674;2023-11-21T12:57:20;6.60;;;5.73;;
10596;SDS011;5346;48.766;8.674;2023-11-21T13:00:00;8.23;;;6.77;;
10596;SDS011;5346;48.766;8.674;2023-11-21T13:02:37;9.33;;;7.20;;
10596;SDS011;5346;48.766;8.674;2023-11-21T13:05:11;11.37;;;7.83;;
10596;SDS011;5346;48.766;8.674;2023-11-21T13:07:48;11.30;;;8.50;;
10596;SDS011;5346;48.766;8.674;2023-11-21T13:10:37;10.63;;;8.50;;
10596;SDS011;5346;48.766;8.674;2023-11-21T13:13:13;12.57;;;9.47;;
10596;SDS011;5346;48.766;8.674;2023-11-21T13:15:51;11.97;;;8.73;;
10596;SDS011;5346;48.766;8.674;2023-11-21T13:18:29;10.53;;;8.87;;
10596;SDS011;5346;48.766;8.674;2023-11-21T13:20:58;9.93;;;7.97;;
10596;SDS011;5346;48.766;8.674;2023-11-21T13:23:35;9.57;;;8.07;;
10596;SDS011;5346;48.766;8.674;2023-11-21T13:26:12;11.13;;;7.43;;
10596;SDS011;5346;48.766;8.674;2023-11-21T13:28:41;9.53;;;5.70;;
10596;SDS011;5346;48.766;8.674;2023-11-21T13:31:19;4.37;;;3.90;;
10596;SDS011;5346;48.766;8.674;2023-11-21T13:33:50;4.47;;;3.43;;
10596;SDS011;5346;48.766;8.674;2023-11-21T13:36:28;3.37;;;2.77;;
10596;SDS011;5346;48.766;8.674;2023-11-21T13:39:06;2.70;;;2.47;;
10596;SDS011;5346;48.766;8.674;2023-11-21T13:41:37;2.43;;;2.10;;
10596;SDS011;5346;48.766;8.674;2023-11-21T13:44:11;2.77;;;2.27;;
10596;SDS011;5346;48.766;8.674;2023-11-21T13:46:53;2.03;;;1.83;;
10596;SDS011;5346;48.766;8.674;2023-11-21T13:49:32;3.37;;;2.30;;
10596;SDS011;5346;48.766;8.674;2023-11-21T13:52:14;2.50;;;2.30;;
10596;SDS011;5346;48.766;8.674;2023-11-21T13:54:44;4.23;;;2.47;;
10596;SDS011;5346;48.766;8.674;2023-11-21T13:57:20;3.70;;;2.83;;
10596;SDS011;5346;48.766;8.674;2023-11-21T13:59:48;6.00;;;3.10;;
10596;SDS011;5346;48.766;8.674;2023-11-21T14:02:24;2.63;;;2.17;;
10596;SDS011;5346;48.766;8.674;2023-11-21T14:05:07;2.60;;;2.33;;
10596;SDS011;5346;48.766;8.674;2023-11-21T14:07:36;2.20;;;2.00;;
10596;SDS011;5346;48.766;8.674;2023-11-21T14:10:04;3.70;;;3.10;;
10596;SDS011;5346;48.766;8.674;2023-11-21T14:12:41;2.07;;;1.93;;
10596;SDS011;5346;48.766;8.674;2023-11-21T14:15:21;5.23;;;2.43;;
10596;SDS011;5346;48.766;8.674;2023-11-21T14:17:49;3.30;;;2.97;;
10596;SDS011;5346;48.766;8.674;2023-11-21T14:20:25;2.90;;;2.40;;
10596;SDS011;5346;48.766;8.674;2023-11-21T14:22:56;2.80;;;2.40;;
10596;SDS011;5346;48.766;8.674;2023-11-21T14:25:31;5.77;;;2.43;;
10596;SDS011;5346;48.766;8.674;2023-11-21T14:28:00;2.67;;;2.33;;
10596;SDS011;5346;48.766;8.674;2023-11-21T14:30:37;5.53;;;2.93;;
10596;SDS011;5346;48.766;8.674;2023-11-21T14:33:06;3.07;;;2.77;;
10596;SDS011;5346;48.766;8.674;2023-11-21T14:35:43;4.60;;;3.30;;
10596;SDS011;5346;48.766;8.674;2023-11-21T14:38:11;4.00;;;3.17;;
10596;SDS011;5346;48.766;8.674;2023-11-21T14:40:48;3.77;;;3.40;;
10596;SDS011;5346;48.766;8.674;2023-11-21T14:43:16;4.00;;;3.60;;
10596;SDS011;5346;48.766;8.674;2023-11-21T14:45:53;3.23;;;2.93;;
10596;SDS011;5346;48.766;8.674;2023-11-21T14:48:25;2.60;;;2.33;;
10596;SDS011;5346;48.766;8.674;2023-11-21T14:51:15;2.27;;;2.07;;
10596;SDS011;5346;48.766;8.674;2023-11-21T14:54:05;2.50;;;2.30;;
10596;SDS011;5346;48.766;8.674;2023-11-21T14:56:39;2.33;;;2.13;;
10596;SDS011;5346;48.766;8.674;2023-11-21T14:59:15;4.70;;;2.17;;
10596;SDS011;5346;48.766;8.674;2023-11-21T15:01:50;2.83;;;2.00;;
10596;SDS011;5346;48.766;8.674;2023-11-21T15:04:25;2.97;;;2.10;;
10596;SDS011;5346;48.766;8.674;2023-11-21T15:07:09;2.57;;;2.30;;
10596;SDS011;5346;48.766;8.674;2023-11-21T15:09:46;2.60;;;2.17;;
10596;SDS011;5346;48.766;8.674;2023-11-21T15:12:22;2.70;;;2.50;;
10596;SDS011;5346;48.766;8.674;2023-11-21T15:14:53;2.80;;;2.50;;
10596;SDS011;5346;48.766;8.674;2023-11-21T15:17:30;4.50;;;2.87;;
10596;SDS011;5346;48.766;8.674;2023-11-21T15:20:00;4.90;;;3.10;;
10596;SDS011;5346;48.766;8.674;2023-11-21T15:22:35;4.47;;;3.10;;
10596;SDS011;5346;48.766;8.674;2023-11-21T15:25:04;4.50;;;3.40;;
10596;SDS011;5346;48.766;8.674;2023-11-21T15:27:43;5.67;;;3.73;;
10596;SDS011;5346;48.766;8.674;2023-11-21T15:30:10;5.23;;;4.33;;
10596;SDS011;5346;48.766;8.674;2023-11-21T15:32:45;6.90;;;4.57;;
10596;SDS011;5346;48.766;8.674;2023-11-21T15:35:13;5.50;;;4.47;;
10596;SDS011;5346;48.766;8.674;2023-11-21T15:37:49;6.60;;;5.17;;
10596;SDS011;5346;48.766;8.674;2023-11-21T15:40:16;7.90;;;5.20;;
10596;SDS011;5346;48.766;8.674;2023-11-21T15:42:51;7.40;;;5.70;;
10596;SDS011;5346;48.766;8.674;2023-11-21T15:45:25;5.97;;;5.10;;
10596;SDS011;5346;48.766;8.674;2023-11-21T15:47:54;7.43;;;5.50;;
10596;SDS011;5346;48.766;8.674;2023-11-21T15:50:31;7.13;;;6.10;;
10596;SDS011;5346;48.766;8.674;2023-11-21T15:52:59;9.07;;;6.67;;